Atlantic, NY

6:14 PM EDT on April 27, 2015 (GMT -0400)
Residential higher plateau | | Change Station
CLOSE
Current Station
Personal Weather Station
Location: Shirley, NY
Elevation: 69 ft
Nearby Weather Stations

Elev 69 ft 40.80 °N, 72.87 °W | Updated 12 minutes ago

Overcast
Overcast
59.7 °F
Feels Like 59.7 °F
N
4.2
Wind Variable Wind from East

Today
High -- | Low -- °F
--% Chance of Precip.
Yesterday
High -- | Low -- °F
Precip. -- in
5:55 AM 7:43 PM
Waxing Gibbous, 68% visible
Pressure 29.62 in
Visibility 10.0 miles
Clouds Overcast 9000 ft
Dew Point 34 °F
Humidity 38%
Rainfall 0.00 in
Snow Depth Not available.
UV 0 out of 12
Pollen 9.70 out of 12
Air Quality Not available.
Flu Activity Widespread
METAR KHWV 272156Z AUTO 32015KT 10SM OVC090 15/00 A2961 RMK AO2 SLP028 T01500000 TSNO

More Conditions Fewer Conditions

Pressure 29.62 in
Visibility 10.0 miles
Clouds Overcast 9000 ft
Dew Point 34 °F
Humidity 38%
Rainfall 0.00 in
Snow Depth Not available.
UV 0 out of 12
Pollen 9.70 out of 12
Air Quality Not available.
Flu Activity Widespread
METAR KHWV 272156Z AUTO 32015KT 10SM OVC090 15/00 A2961 RMK AO2 SLP028 T01500000 TSNO

More Conditions Fewer Conditions

10-Day Weather Forecast

Almanac

Astronomy

Apr. 27, 2015 Rise Set
Actual Time
Civil Twilight
Nautical Twilight
Astronomical Twilight
Moon
Length of Visible Light
Length of Day
Tomorrow will be .
, % of the Moon is Illuminated

Today's Extremes

State Highs State Lows

Community

WunderPhotos

Upload Photos

1,817,442 photos uploaded!

WunderBlogs® & News

Nearby

Air Quality

  Air Quality AQ Index Pollutant
Not available.

Snow Depth

Station Depth Elevation

Earthquake Activity

City Distance Mag. Time & Date
Minimum magnitude displayed is 2.5.

Coastal Water Temperatures

Place Temperature

Stations

Nearby Weather Stations

Station Location Temp. Windchill Dew Point Humidity Wind Precip. Elev Updated Type